F/V Oceanis — FHLH — position and weather

sailwx.info

Track history (hours):
 
Tides and Currents Weather Stations Pressure Air Temp Water Temp Dewpoint Dewpoint Depression Visibility Wind Speed Wind Dir Waves Ship Positions

F/V Oceanis

Last reported at 2017-Feb-22 05:33 UTC. Time now 2017-Feb-24 03:43 UTC.
Position N 44°39' W 001°09'.

Type: Other ship. MMSI: 228385000.

Date/timePositionNaut miles runAvg speedWind from/ knotsBaromVisibWave heightAir tempDewpointWater temp
2017-Feb-22 05:33N 44°39' W 001°09'0 0.0
2017-Feb-22 04:34N 44°39' W 001°09'0 0.0
2017-Feb-22 03:34N 44°39' W 001°09'3 3.0
2017-Feb-22 02:33N 44°39' W 001°13'6 6.0
2017-Feb-22 01:33N 44°34' W 001°17'7 6.9
2017-Feb-22 00:33N 44°41' W 001°19'7 7.3
2017-Feb-21 23:33N 44°48' W 001°23'  
2017-Feb-19 02:31N 45°21' W 002°08'9 0.5
2017-Feb-18 06:10N 45°12' W 002°12'1 0.9
2017-Feb-18 05:23N 45°12' W 002°13'16 0.6
2017-Feb-17 02:17N 45°02' W 001°55'16 1.3
2017-Feb-16 13:26N 44°51' W 001°38'8 8.6
2017-Feb-16 12:31N 44°45' W 001°31'8 8.8
2017-Feb-16 11:33N 44°38' W 001°24'7 7.3
2017-Feb-16 10:34N 44°35' W 001°15'6 6.2
2017-Feb-16 09:34N 44°39' W 001°09'0 0.0
2017-Feb-16 08:34N 44°39' W 001°09'0 0.0
2017-Feb-16 07:34N 44°39' W 001°09'  
2017-Feb-13 20:09N 44°39' W 001°09'0 0.0
2017-Feb-13 19:33N 44°39' W 001°09'0 0.0
2017-Feb-13 18:33N 44°39' W 001°09'0 0.0
2017-Feb-13 17:33N 44°39' W 001°09'6 6.4
2017-Feb-13 16:33N 44°35' W 001°15'6 6.1
2017-Feb-13 15:33N 44°41' W 001°17'9 8.5
2017-Feb-13 14:33N 44°50' W 001°15'  
Track history (hours):
 
Tides and Currents Weather Stations Pressure Air Temp Water Temp Dewpoint Dewpoint Depression Visibility Wind Speed Wind Dir Waves Ship Positions

F/V Oceanis

Last reported at 2017-Feb-22 05:33 UTC. Time now 2017-Feb-24 03:43 UTC.
Position N 44°39' W 001°09'.

Type: Other ship. MMSI: 228385000.

Date/timePositionNaut miles runAvg speedWind from/ knotsBaromVisibWave heightAir tempDewpointWater temp
2017-Feb-22 05:33N 44°39' W 001°09'0 0.0
2017-Feb-22 04:34N 44°39' W 001°09'0 0.0
2017-Feb-22 03:34N 44°39' W 001°09'3 3.0
2017-Feb-22 02:33N 44°39' W 001°13'6 6.0
2017-Feb-22 01:33N 44°34' W 001°17'7 6.9
2017-Feb-22 00:33N 44°41' W 001°19'7 7.3
2017-Feb-21 23:33N 44°48' W 001°23'  
2017-Feb-19 02:31N 45°21' W 002°08'9 0.5
2017-Feb-18 06:10N 45°12' W 002°12'1 0.9
2017-Feb-18 05:23N 45°12' W 002°13'16 0.6
2017-Feb-17 02:17N 45°02' W 001°55'16 1.3
2017-Feb-16 13:26N 44°51' W 001°38'8 8.6
2017-Feb-16 12:31N 44°45' W 001°31'8 8.8
2017-Feb-16 11:33N 44°38' W 001°24'7 7.3
2017-Feb-16 10:34N 44°35' W 001°15'6 6.2
2017-Feb-16 09:34N 44°39' W 001°09'0 0.0
2017-Feb-16 08:34N 44°39' W 001°09'0 0.0
2017-Feb-16 07:34N 44°39' W 001°09'  
2017-Feb-13 20:09N 44°39' W 001°09'0 0.0
2017-Feb-13 19:33N 44°39' W 001°09'0 0.0
2017-Feb-13 18:33N 44°39' W 001°09'0 0.0
2017-Feb-13 17:33N 44°39' W 001°09'6 6.4
2017-Feb-13 16:33N 44°35' W 001°15'6 6.1
2017-Feb-13 15:33N 44°41' W 001°17'9 8.5
2017-Feb-13 14:33N 44°50' W 001°15'  

Dump ship's entire track history